sensor_id;sensor_type;location;lat;lon;timestamp;P1;durP1;ratioP1;P2;durP2;ratioP2
59972;SDS011;55298;-36.624;-64.282;2023-12-14T00:00:30;4.60;;;2.67;;
59972;SDS011;55298;-36.624;-64.282;2023-12-14T00:02:58;8.88;;;3.97;;
59972;SDS011;55298;-36.624;-64.282;2023-12-14T00:05:25;8.70;;;2.33;;
59972;SDS011;55298;-36.624;-64.282;2023-12-14T00:07:53;9.05;;;3.33;;
59972;SDS011;55298;-36.624;-64.282;2023-12-14T00:10:21;8.98;;;2.63;;
59972;SDS011;55298;-36.624;-64.282;2023-12-14T00:12:48;6.35;;;2.70;;
59972;SDS011;55298;-36.624;-64.282;2023-12-14T00:15:16;4.25;;;2.50;;
59972;SDS011;55298;-36.624;-64.282;2023-12-14T00:17:44;8.35;;;3.00;;
59972;SDS011;55298;-36.624;-64.282;2023-12-14T00:20:13;11.88;;;6.32;;
59972;SDS011;55298;-36.624;-64.282;2023-12-14T00:22:41;5.38;;;2.33;;
59972;SDS011;55298;-36.624;-64.282;2023-12-14T00:25:09;10.27;;;3.13;;
59972;SDS011;55298;-36.624;-64.282;2023-12-14T00:27:36;8.30;;;5.10;;
59972;SDS011;55298;-36.624;-64.282;2023-12-14T00:30:05;5.50;;;3.47;;
59972;SDS011;55298;-36.624;-64.282;2023-12-14T00:32:33;8.48;;;2.28;;
59972;SDS011;55298;-36.624;-64.282;2023-12-14T00:35:01;2.58;;;1.65;;
59972;SDS011;55298;-36.624;-64.282;2023-12-14T00:37:29;3.13;;;1.70;;
59972;SDS011;55298;-36.624;-64.282;2023-12-14T00:39:57;4.50;;;2.80;;
59972;SDS011;55298;-36.624;-64.282;2023-12-14T00:42:25;7.13;;;2.05;;
59972;SDS011;55298;-36.624;-64.282;2023-12-14T00:44:53;3.67;;;1.70;;
59972;SDS011;55298;-36.624;-64.282;2023-12-14T00:47:20;4.78;;;1.88;;
59972;SDS011;55298;-36.624;-64.282;2023-12-14T00:49:48;5.60;;;2.90;;
59972;SDS011;55298;-36.624;-64.282;2023-12-14T00:52:16;5.40;;;1.88;;
59972;SDS011;55298;-36.624;-64.282;2023-12-14T00:54:43;3.13;;;1.80;;
59972;SDS011;55298;-36.624;-64.282;2023-12-14T00:57:14;2.78;;;1.73;;
59972;SDS011;55298;-36.624;-64.282;2023-12-14T00:59:42;3.78;;;1.70;;
59972;SDS011;55298;-36.624;-64.282;2023-12-14T01:02:11;4.57;;;1.60;;
59972;SDS011;55298;-36.624;-64.282;2023-12-14T01:04:38;1.83;;;1.42;;
59972;SDS011;55298;-36.624;-64.282;2023-12-14T01:07:08;4.68;;;1.70;;
59972;SDS011;55298;-36.624;-64.282;2023-12-14T01:09:40;4.53;;;1.70;;
59972;SDS011;55298;-36.624;-64.282;2023-12-14T01:12:08;3.63;;;1.70;;
59972;SDS011;55298;-36.624;-64.282;2023-12-14T01:14:40;3.63;;;1.55;;
59972;SDS011;55298;-36.624;-64.282;2023-12-14T01:17:08;2.15;;;1.70;;
59972;SDS011;55298;-36.624;-64.282;2023-12-14T01:19:35;4.53;;;1.50;;
59972;SDS011;55298;-36.624;-64.282;2023-12-14T01:22:07;4.05;;;1.52;;
59972;SDS011;55298;-36.624;-64.282;2023-12-14T01:24:34;3.92;;;1.40;;
59972;SDS011;55298;-36.624;-64.282;2023-12-14T01:27:02;2.50;;;1.50;;
59972;SDS011;55298;-36.624;-64.282;2023-12-14T01:29:30;3.30;;;1.60;;
59972;SDS011;55298;-36.624;-64.282;2023-12-14T01:31:58;4.30;;;2.10;;
59972;SDS011;55298;-36.624;-64.282;2023-12-14T01:34:27;2.55;;;1.60;;
59972;SDS011;55298;-36.624;-64.282;2023-12-14T01:36:55;4.05;;;1.60;;
59972;SDS011;55298;-36.624;-64.282;2023-12-14T01:39:24;3.40;;;1.52;;
59972;SDS011;55298;-36.624;-64.282;2023-12-14T01:41:51;3.78;;;1.50;;
59972;SDS011;55298;-36.624;-64.282;2023-12-14T01:44:21;4.47;;;1.92;;
59972;SDS011;55298;-36.624;-64.282;2023-12-14T01:46:48;4.10;;;1.65;;
59972;SDS011;55298;-36.624;-64.282;2023-12-14T01:49:16;3.17;;;1.52;;
59972;SDS011;55298;-36.624;-64.282;2023-12-14T01:51:44;4.63;;;1.83;;
59972;SDS011;55298;-36.624;-64.282;2023-12-14T01:54:12;3.08;;;1.80;;
59972;SDS011;55298;-36.624;-64.282;2023-12-14T01:56:43;4.10;;;1.80;;
59972;SDS011;55298;-36.624;-64.282;2023-12-14T01:59:11;5.22;;;1.75;;
59972;SDS011;55298;-36.624;-64.282;2023-12-14T02:01:41;5.40;;;1.80;;
59972;SDS011;55298;-36.624;-64.282;2023-12-14T02:04:13;3.78;;;1.60;;
59972;SDS011;55298;-36.624;-64.282;2023-12-14T02:06:43;5.43;;;1.60;;
59972;SDS011;55298;-36.624;-64.282;2023-12-14T02:09:14;3.15;;;1.73;;
59972;SDS011;55298;-36.624;-64.282;2023-12-14T02:11:47;5.72;;;1.80;;
59972;SDS011;55298;-36.624;-64.282;2023-12-14T02:14:15;4.65;;;1.70;;
59972;SDS011;55298;-36.624;-64.282;2023-12-14T02:16:42;5.25;;;1.90;;
59972;SDS011;55298;-36.624;-64.282;2023-12-14T02:19:10;3.25;;;1.60;;
59972;SDS011;55298;-36.624;-64.282;2023-12-14T02:21:38;3.85;;;2.40;;
59972;SDS011;55298;-36.624;-64.282;2023-12-14T02:24:09;2.63;;;1.60;;
59972;SDS011;55298;-36.624;-64.282;2023-12-14T02:26:36;3.15;;;1.58;;
59972;SDS011;55298;-36.624;-64.282;2023-12-14T02:29:04;2.75;;;1.50;;
59972;SDS011;55298;-36.624;-64.282;2023-12-14T02:31:32;4.63;;;1.60;;
59972;SDS011;55298;-36.624;-64.282;2023-12-14T02:34:00;3.08;;;1.75;;
59972;SDS011;55298;-36.624;-64.282;2023-12-14T02:36:28;3.92;;;1.70;;
59972;SDS011;55298;-36.624;-64.282;2023-12-14T02:38:55;3.83;;;1.77;;
59972;SDS011;55298;-36.624;-64.282;2023-12-14T02:41:23;5.30;;;2.00;;
59972;SDS011;55298;-36.624;-64.282;2023-12-14T02:43:51;2.60;;;2.05;;
59972;SDS011;55298;-36.624;-64.282;2023-12-14T02:46:22;4.93;;;2.00;;
59972;SDS011;55298;-36.624;-64.282;2023-12-14T02:48:50;4.45;;;2.00;;
59972;SDS011;55298;-36.624;-64.282;2023-12-14T02:51:17;4.47;;;1.88;;
59972;SDS011;55298;-36.624;-64.282;2023-12-14T02:53:45;2.17;;;1.73;;
59972;SDS011;55298;-36.624;-64.282;2023-12-14T02:56:13;6.35;;;1.70;;
59972;SDS011;55298;-36.624;-64.282;2023-12-14T02:58:41;4.93;;;1.90;;
59972;SDS011;55298;-36.624;-64.282;2023-12-14T03:01:08;3.92;;;1.50;;
59972;SDS011;55298;-36.624;-64.282;2023-12-14T03:03:38;3.08;;;1.50;;
59972;SDS011;55298;-36.624;-64.282;2023-12-14T03:06:05;3.53;;;1.75;;
59972;SDS011;55298;-36.624;-64.282;2023-12-14T03:08:33;4.43;;;2.20;;
59972;SDS011;55298;-36.624;-64.282;2023-12-14T03:11:01;4.63;;;1.50;;
59972;SDS011;55298;-36.624;-64.282;2023-12-14T03:13:29;4.68;;;1.90;;
59972;SDS011;55298;-36.624;-64.282;2023-12-14T03:15:56;3.35;;;2.20;;
59972;SDS011;55298;-36.624;-64.282;2023-12-14T03:18:25;4.45;;;1.85;;
59972;SDS011;55298;-36.624;-64.282;2023-12-14T03:20:53;2.08;;;1.77;;
59972;SDS011;55298;-36.624;-64.282;2023-12-14T03:23:21;3.78;;;1.73;;
59972;SDS011;55298;-36.624;-64.282;2023-12-14T03:25:49;4.10;;;1.85;;
59972;SDS011;55298;-36.624;-64.282;2023-12-14T03:28:16;4.45;;;1.63;;
59972;SDS011;55298;-36.624;-64.282;2023-12-14T03:30:44;6.65;;;1.75;;
59972;SDS011;55298;-36.624;-64.282;2023-12-14T03:33:12;4.28;;;1.60;;
59972;SDS011;55298;-36.624;-64.282;2023-12-14T03:35:39;4.90;;;1.80;;
59972;SDS011;55298;-36.624;-64.282;2023-12-14T03:38:07;4.95;;;2.65;;
59972;SDS011;55298;-36.624;-64.282;2023-12-14T03:40:36;5.00;;;1.85;;
59972;SDS011;55298;-36.624;-64.282;2023-12-14T03:43:07;5.30;;;1.98;;
59972;SDS011;55298;-36.624;-64.282;2023-12-14T03:45:37;4.97;;;1.60;;
59972;SDS011;55298;-36.624;-64.282;2023-12-14T03:48:04;1.88;;;1.50;;
59972;SDS011;55298;-36.624;-64.282;2023-12-14T03:50:32;3.75;;;1.80;;
59972;SDS011;55298;-36.624;-64.282;2023-12-14T03:53:00;4.18;;;1.70;;
59972;SDS011;55298;-36.624;-64.282;2023-12-14T03:55:29;6.40;;;1.58;;
59972;SDS011;55298;-36.624;-64.282;2023-12-14T03:57:56;4.32;;;1.90;;
59972;SDS011;55298;-36.624;-64.282;2023-12-14T04:00:24;4.43;;;2.22;;
59972;SDS011;55298;-36.624;-64.282;2023-12-14T04:02:52;3.10;;;1.70;;
59972;SDS011;55298;-36.624;-64.282;2023-12-14T04:05:20;3.50;;;1.70;;
59972;SDS011;55298;-36.624;-64.282;2023-12-14T04:07:48;6.05;;;1.90;;
59972;SDS011;55298;-36.624;-64.282;2023-12-14T04:10:15;3.60;;;1.80;;
59972;SDS011;55298;-36.624;-64.282;2023-12-14T04:12:43;5.57;;;2.17;;
59972;SDS011;55298;-36.624;-64.282;2023-12-14T04:15:11;3.00;;;1.80;;
59972;SDS011;55298;-36.624;-64.282;2023-12-14T04:17:39;2.15;;;1.70;;
59972;SDS011;55298;-36.624;-64.282;2023-12-14T04:20:07;5.68;;;2.00;;
59972;SDS011;55298;-36.624;-64.282;2023-12-14T04:22:36;3.28;;;1.98;;
59972;SDS011;55298;-36.624;-64.282;2023-12-14T04:25:04;3.55;;;1.70;;
59972;SDS011;55298;-36.624;-64.282;2023-12-14T04:27:33;5.45;;;2.30;;
59972;SDS011;55298;-36.624;-64.282;2023-12-14T04:30:01;4.38;;;1.77;;
59972;SDS011;55298;-36.624;-64.282;2023-12-14T04:32:30;5.75;;;2.40;;
59972;SDS011;55298;-36.624;-64.282;2023-12-14T04:34:58;6.20;;;2.05;;
59972;SDS011;55298;-36.624;-64.282;2023-12-14T04:37:27;5.47;;;2.13;;
59972;SDS011;55298;-36.624;-64.282;2023-12-14T04:39:59;2.97;;;1.93;;
59972;SDS011;55298;-36.624;-64.282;2023-12-14T04:42:27;3.10;;;2.35;;
59972;SDS011;55298;-36.624;-64.282;2023-12-14T04:44:55;2.78;;;1.98;;
59972;SDS011;55298;-36.624;-64.282;2023-12-14T04:47:22;4.25;;;1.80;;
59972;SDS011;55298;-36.624;-64.282;2023-12-14T04:49:50;3.53;;;2.25;;
59972;SDS011;55298;-36.624;-64.282;2023-12-14T04:52:18;3.67;;;2.08;;
59972;SDS011;55298;-36.624;-64.282;2023-12-14T04:54:46;2.90;;;2.10;;
59972;SDS011;55298;-36.624;-64.282;2023-12-14T04:57:14;5.45;;;2.30;;
59972;SDS011;55298;-36.624;-64.282;2023-12-14T04:59:42;5.22;;;1.98;;
59972;SDS011;55298;-36.624;-64.282;2023-12-14T05:02:10;4.13;;;2.30;;
59972;SDS011;55298;-36.624;-64.282;2023-12-14T05:04:37;4.20;;;2.22;;
59972;SDS011;55298;-36.624;-64.282;2023-12-14T05:07:09;4.15;;;2.20;;
59972;SDS011;55298;-36.624;-64.282;2023-12-14T05:09:37;3.20;;;2.13;;
59972;SDS011;55298;-36.624;-64.282;2023-12-14T05:12:09;5.30;;;2.27;;
59972;SDS011;55298;-36.624;-64.282;2023-12-14T05:14:37;6.55;;;2.08;;
59972;SDS011;55298;-36.624;-64.282;2023-12-14T05:17:04;4.13;;;2.22;;
59972;SDS011;55298;-36.624;-64.282;2023-12-14T05:19:32;2.88;;;2.13;;
59972;SDS011;55298;-36.624;-64.282;2023-12-14T05:22:00;3.00;;;2.00;;
59972;SDS011;55298;-36.624;-64.282;2023-12-14T05:24:28;3.97;;;2.13;;
59972;SDS011;55298;-36.624;-64.282;2023-12-14T05:26:55;2.97;;;2.17;;
59972;SDS011;55298;-36.624;-64.282;2023-12-14T05:29:23;2.95;;;2.13;;
59972;SDS011;55298;-36.624;-64.282;2023-12-14T05:31:51;3.40;;;2.17;;
59972;SDS011;55298;-36.624;-64.282;2023-12-14T05:34:18;5.60;;;2.30;;
59972;SDS011;55298;-36.624;-64.282;2023-12-14T05:36:46;6.05;;;2.83;;
59972;SDS011;55298;-36.624;-64.282;2023-12-14T05:39:13;5.30;;;2.50;;
59972;SDS011;55298;-36.624;-64.282;2023-12-14T05:41:41;2.45;;;2.20;;
59972;SDS011;55298;-36.624;-64.282;2023-12-14T05:44:08;5.25;;;2.53;;
59972;SDS011;55298;-36.624;-64.282;2023-12-14T05:46:36;6.80;;;2.80;;
59972;SDS011;55298;-36.624;-64.282;2023-12-14T05:49:04;2.40;;;2.20;;
59972;SDS011;55298;-36.624;-64.282;2023-12-14T05:51:32;3.28;;;2.40;;
59972;SDS011;55298;-36.624;-64.282;2023-12-14T05:54:00;3.47;;;2.30;;
59972;SDS011;55298;-36.624;-64.282;2023-12-14T05:56:28;4.50;;;2.50;;
59972;SDS011;55298;-36.624;-64.282;2023-12-14T05:58:56;3.30;;;2.40;;
59972;SDS011;55298;-36.624;-64.282;2023-12-14T06:01:23;7.88;;;2.60;;
59972;SDS011;55298;-36.624;-64.282;2023-12-14T06:03:51;5.43;;;2.50;;
59972;SDS011;55298;-36.624;-64.282;2023-12-14T06:06:20;4.43;;;2.75;;
59972;SDS011;55298;-36.624;-64.282;2023-12-14T06:08:48;3.35;;;2.63;;
59972;SDS011;55298;-36.624;-64.282;2023-12-14T06:11:16;3.08;;;2.50;;
59972;SDS011;55298;-36.624;-64.282;2023-12-14T06:13:45;5.53;;;2.53;;
59972;SDS011;55298;-36.624;-64.282;2023-12-14T06:16:12;4.57;;;2.63;;
59972;SDS011;55298;-36.624;-64.282;2023-12-14T06:18:40;4.55;;;2.50;;
59972;SDS011;55298;-36.624;-64.282;2023-12-14T06:21:10;5.03;;;2.38;;
59972;SDS011;55298;-36.624;-64.282;2023-12-14T06:23:39;3.08;;;2.83;;
59972;SDS011;55298;-36.624;-64.282;2023-12-14T06:26:06;4.43;;;2.63;;
59972;SDS011;55298;-36.624;-64.282;2023-12-14T06:28:34;2.90;;;2.22;;
59972;SDS011;55298;-36.624;-64.282;2023-12-14T06:31:02;6.25;;;2.90;;
59972;SDS011;55298;-36.624;-64.282;2023-12-14T06:33:30;4.68;;;2.80;;
59972;SDS011;55298;-36.624;-64.282;2023-12-14T06:35:58;5.53;;;2.95;;
59972;SDS011;55298;-36.624;-64.282;2023-12-14T06:38:30;3.20;;;2.90;;
59972;SDS011;55298;-36.624;-64.282;2023-12-14T06:40:58;6.07;;;3.13;;
59972;SDS011;55298;-36.624;-64.282;2023-12-14T06:43:27;4.63;;;2.88;;
59972;SDS011;55298;-36.624;-64.282;2023-12-14T06:45:55;4.07;;;2.72;;
59972;SDS011;55298;-36.624;-64.282;2023-12-14T06:48:23;5.47;;;2.95;;
59972;SDS011;55298;-36.624;-64.282;2023-12-14T06:50:50;3.63;;;2.70;;
59972;SDS011;55298;-36.624;-64.282;2023-12-14T06:53:20;3.67;;;3.03;;
59972;SDS011;55298;-36.624;-64.282;2023-12-14T06:55:48;5.35;;;3.00;;
59972;SDS011;55298;-36.624;-64.282;2023-12-14T06:58:16;4.00;;;2.80;;
59972;SDS011;55298;-36.624;-64.282;2023-12-14T07:00:44;3.45;;;2.72;;
59972;SDS011;55298;-36.624;-64.282;2023-12-14T07:03:16;5.05;;;3.40;;
59972;SDS011;55298;-36.624;-64.282;2023-12-14T07:05:43;3.92;;;3.00;;
59972;SDS011;55298;-36.624;-64.282;2023-12-14T07:08:12;4.25;;;3.45;;
59972;SDS011;55298;-36.624;-64.282;2023-12-14T07:10:45;4.78;;;3.40;;
59972;SDS011;55298;-36.624;-64.282;2023-12-14T07:13:13;5.05;;;3.40;;
59972;SDS011;55298;-36.624;-64.282;2023-12-14T07:15:41;3.97;;;3.20;;
59972;SDS011;55298;-36.624;-64.282;2023-12-14T07:18:08;4.70;;;3.50;;
59972;SDS011;55298;-36.624;-64.282;2023-12-14T07:20:36;4.07;;;3.22;;
59972;SDS011;55298;-36.624;-64.282;2023-12-14T07:23:04;4.80;;;3.90;;
59972;SDS011;55298;-36.624;-64.282;2023-12-14T07:25:32;3.53;;;3.22;;
59972;SDS011;55298;-36.624;-64.282;2023-12-14T07:27:59;4.78;;;3.33;;
59972;SDS011;55298;-36.624;-64.282;2023-12-14T07:30:28;4.43;;;3.17;;
59972;SDS011;55298;-36.624;-64.282;2023-12-14T07:32:55;5.30;;;3.83;;
59972;SDS011;55298;-36.624;-64.282;2023-12-14T07:35:23;4.70;;;3.63;;
59972;SDS011;55298;-36.624;-64.282;2023-12-14T07:37:50;4.13;;;3.38;;
59972;SDS011;55298;-36.624;-64.282;2023-12-14T07:40:18;4.13;;;3.38;;
59972;SDS011;55298;-36.624;-64.282;2023-12-14T07:42:45;6.00;;;3.90;;
59972;SDS011;55298;-36.624;-64.282;2023-12-14T07:45:14;4.18;;;3.70;;
59972;SDS011;55298;-36.624;-64.282;2023-12-14T07:47:41;4.40;;;3.30;;
59972;SDS011;55298;-36.624;-64.282;2023-12-14T07:50:11;5.18;;;3.88;;
59972;SDS011;55298;-36.624;-64.282;2023-12-14T07:52:39;5.20;;;3.60;;
59972;SDS011;55298;-36.624;-64.282;2023-12-14T07:55:07;5.72;;;3.60;;
59972;SDS011;55298;-36.624;-64.282;2023-12-14T07:57:35;4.55;;;3.65;;
59972;SDS011;55298;-36.624;-64.282;2023-12-14T08:00:03;6.15;;;4.30;;
59972;SDS011;55298;-36.624;-64.282;2023-12-14T08:02:31;5.22;;;3.90;;
59972;SDS011;55298;-36.624;-64.282;2023-12-14T08:04:58;5.70;;;3.70;;
59972;SDS011;55298;-36.624;-64.282;2023-12-14T08:07:26;6.15;;;4.03;;
59972;SDS011;55298;-36.624;-64.282;2023-12-14T08:09:55;5.60;;;4.07;;
59972;SDS011;55298;-36.624;-64.282;2023-12-14T08:12:23;4.22;;;3.83;;
59972;SDS011;55298;-36.624;-64.282;2023-12-14T08:14:51;4.13;;;3.60;;
59972;SDS011;55298;-36.624;-64.282;2023-12-14T08:17:19;6.72;;;3.90;;
59972;SDS011;55298;-36.624;-64.282;2023-12-14T08:19:47;5.43;;;3.58;;
59972;SDS011;55298;-36.624;-64.282;2023-12-14T08:22:15;4.82;;;4.35;;
59972;SDS011;55298;-36.624;-64.282;2023-12-14T08:24:42;6.22;;;3.72;;
59972;SDS011;55298;-36.624;-64.282;2023-12-14T08:27:10;5.95;;;4.32;;
59972;SDS011;55298;-36.624;-64.282;2023-12-14T08:29:38;6.93;;;4.07;;
59972;SDS011;55298;-36.624;-64.282;2023-12-14T08:32:05;7.40;;;4.20;;
59972;SDS011;55298;-36.624;-64.282;2023-12-14T08:34:33;5.70;;;4.00;;
59972;SDS011;55298;-36.624;-64.282;2023-12-14T08:37:01;4.97;;;4.05;;
59972;SDS011;55298;-36.624;-64.282;2023-12-14T08:39:28;4.95;;;4.40;;
59972;SDS011;55298;-36.624;-64.282;2023-12-14T08:41:56;6.80;;;4.68;;
59972;SDS011;55298;-36.624;-64.282;2023-12-14T08:44:23;7.10;;;4.68;;
59972;SDS011;55298;-36.624;-64.282;2023-12-14T08:46:51;8.20;;;4.40;;
59972;SDS011;55298;-36.624;-64.282;2023-12-14T08:49:19;7.78;;;4.80;;
59972;SDS011;55298;-36.624;-64.282;2023-12-14T08:51:48;7.50;;;4.95;;
59972;SDS011;55298;-36.624;-64.282;2023-12-14T08:54:16;7.90;;;4.63;;
59972;SDS011;55298;-36.624;-64.282;2023-12-14T08:56:44;7.53;;;4.80;;
59972;SDS011;55298;-36.624;-64.282;2023-12-14T08:59:11;6.15;;;5.05;;
59972;SDS011;55298;-36.624;-64.282;2023-12-14T09:01:39;5.15;;;4.70;;
59972;SDS011;55298;-36.624;-64.282;2023-12-14T09:04:07;8.38;;;5.65;;
59972;SDS011;55298;-36.624;-64.282;2023-12-14T09:06:35;8.23;;;5.68;;
59972;SDS011;55298;-36.624;-64.282;2023-12-14T09:09:03;8.50;;;5.22;;
59972;SDS011;55298;-36.624;-64.282;2023-12-14T09:11:31;6.85;;;5.07;;
59972;SDS011;55298;-36.624;-64.282;2023-12-14T09:14:02;6.15;;;5.32;;
59972;SDS011;55298;-36.624;-64.282;2023-12-14T09:16:30;7.50;;;5.25;;
59972;SDS011;55298;-36.624;-64.282;2023-12-14T09:18:58;7.72;;;5.40;;
59972;SDS011;55298;-36.624;-64.282;2023-12-14T09:21:27;7.20;;;5.60;;
59972;SDS011;55298;-36.624;-64.282;2023-12-14T09:26:25;8.98;;;5.80;;
59972;SDS011;55298;-36.624;-64.282;2023-12-14T09:28:53;6.85;;;5.35;;
59972;SDS011;55298;-36.624;-64.282;2023-12-14T09:31:20;7.10;;;6.43;;
59972;SDS011;55298;-36.624;-64.282;2023-12-14T09:33:48;11.57;;;6.63;;
59972;SDS011;55298;-36.624;-64.282;2023-12-14T09:36:16;7.50;;;6.25;;
59972;SDS011;55298;-36.624;-64.282;2023-12-14T09:38:44;8.82;;;6.00;;
59972;SDS011;55298;-36.624;-64.282;2023-12-14T09:41:11;9.68;;;6.80;;
59972;SDS011;55298;-36.624;-64.282;2023-12-14T09:43:39;9.70;;;7.05;;
59972;SDS011;55298;-36.624;-64.282;2023-12-14T09:46:07;9.20;;;7.25;;
59972;SDS011;55298;-36.624;-64.282;2023-12-14T09:48:36;9.98;;;7.35;;
59972;SDS011;55298;-36.624;-64.282;2023-12-14T09:51:06;8.30;;;7.43;;
59972;SDS011;55298;-36.624;-64.282;2023-12-14T09:53:34;8.27;;;7.28;;
59972;SDS011;55298;-36.624;-64.282;2023-12-14T09:56:02;9.48;;;7.40;;
59972;SDS011;55298;-36.624;-64.282;2023-12-14T09:58:31;9.93;;;7.30;;
59972;SDS011;55298;-36.624;-64.282;2023-12-14T10:01:00;8.95;;;7.25;;
59972;SDS011;55298;-36.624;-64.282;2023-12-14T10:03:30;10.10;;;7.50;;
59972;SDS011;55298;-36.624;-64.282;2023-12-14T10:05:58;14.27;;;7.97;;
59972;SDS011;55298;-36.624;-64.282;2023-12-14T10:08:27;10.23;;;7.20;;
59972;SDS011;55298;-36.624;-64.282;2023-12-14T10:10:55;8.13;;;7.30;;
59972;SDS011;55298;-36.624;-64.282;2023-12-14T10:13:47;11.20;;;7.38;;
59972;SDS011;55298;-36.624;-64.282;2023-12-14T10:16:09;9.02;;;6.63;;
59972;SDS011;55298;-36.624;-64.282;2023-12-14T10:18:37;10.77;;;7.43;;
59972;SDS011;55298;-36.624;-64.282;2023-12-14T10:21:06;11.48;;;7.78;;
59972;SDS011;55298;-36.624;-64.282;2023-12-14T10:23:35;11.82;;;7.25;;
59972;SDS011;55298;-36.624;-64.282;2023-12-14T10:26:04;10.68;;;8.00;;
59972;SDS011;55298;-36.624;-64.282;2023-12-14T10:28:33;11.95;;;8.20;;
59972;SDS011;55298;-36.624;-64.282;2023-12-14T10:31:01;11.50;;;7.43;;
59972;SDS011;55298;-36.624;-64.282;2023-12-14T10:33:30;10.98;;;7.22;;
59972;SDS011;55298;-36.624;-64.282;2023-12-14T10:36:00;8.88;;;7.25;;
59972;SDS011;55298;-36.624;-64.282;2023-12-14T10:38:30;11.07;;;7.55;;
59972;SDS011;55298;-36.624;-64.282;2023-12-14T10:41:00;11.15;;;8.25;;
59972;SDS011;55298;-36.624;-64.282;2023-12-14T10:43:29;11.57;;;9.30;;
59972;SDS011;55298;-36.624;-64.282;2023-12-14T10:45:59;16.08;;;8.95;;
59972;SDS011;55298;-36.624;-64.282;2023-12-14T10:48:30;10.00;;;8.52;;
59972;SDS011;55298;-36.624;-64.282;2023-12-14T10:51:01;10.48;;;8.77;;
59972;SDS011;55298;-36.624;-64.282;2023-12-14T10:53:32;12.35;;;8.48;;
59972;SDS011;55298;-36.624;-64.282;2023-12-14T10:56:04;9.73;;;8.70;;
59972;SDS011;55298;-36.624;-64.282;2023-12-14T11:01:28;12.13;;;8.35;;
59972;SDS011;55298;-36.624;-64.282;2023-12-14T11:04:02;13.02;;;8.80;;
59972;SDS011;55298;-36.624;-64.282;2023-12-14T11:06:37;11.05;;;8.60;;
59972;SDS011;55298;-36.624;-64.282;2023-12-14T11:09:08;10.90;;;9.00;;
59972;SDS011;55298;-36.624;-64.282;2023-12-14T11:11:43;11.65;;;8.93;;
59972;SDS011;55298;-36.624;-64.282;2023-12-14T11:14:29;11.10;;;8.90;;
59972;SDS011;55298;-36.624;-64.282;2023-12-14T11:17:02;12.65;;;8.95;;
59972;SDS011;55298;-36.624;-64.282;2023-12-14T11:19:33;11.32;;;8.93;;
59972;SDS011;55298;-36.624;-64.282;2023-12-14T11:22:09;13.95;;;9.15;;
59972;SDS011;55298;-36.624;-64.282;2023-12-14T11:24:41;15.55;;;11.07;;
59972;SDS011;55298;-36.624;-64.282;2023-12-14T11:27:19;14.23;;;9.27;;
59972;SDS011;55298;-36.624;-64.282;2023-12-14T11:29:55;13.07;;;9.30;;
59972;SDS011;55298;-36.624;-64.282;2023-12-14T11:32:24;13.02;;;9.23;;
59972;SDS011;55298;-36.624;-64.282;2023-12-14T11:34:54;10.93;;;8.57;;
59972;SDS011;55298;-36.624;-64.282;2023-12-14T11:37:26;11.45;;;9.20;;
59972;SDS011;55298;-36.624;-64.282;2023-12-14T11:39:54;13.52;;;9.75;;
59972;SDS011;55298;-36.624;-64.282;2023-12-14T11:42:25;12.32;;;9.63;;
59972;SDS011;55298;-36.624;-64.282;2023-12-14T11:45:01;15.10;;;9.30;;
59972;SDS011;55298;-36.624;-64.282;2023-12-14T11:47:29;15.23;;;9.73;;
59972;SDS011;55298;-36.624;-64.282;2023-12-14T11:49:58;16.73;;;9.90;;
59972;SDS011;55298;-36.624;-64.282;2023-12-14T11:52:26;16.65;;;8.50;;
59972;SDS011;55298;-36.624;-64.282;2023-12-14T11:54:55;13.10;;;9.52;;
59972;SDS011;55298;-36.624;-64.282;2023-12-14T11:57:28;14.60;;;9.02;;
59972;SDS011;55298;-36.624;-64.282;2023-12-14T12:02:25;12.27;;;7.88;;
59972;SDS011;55298;-36.624;-64.282;2023-12-14T12:04:53;11.90;;;8.20;;
59972;SDS011;55298;-36.624;-64.282;2023-12-14T12:07:22;15.15;;;8.05;;
59972;SDS011;55298;-36.624;-64.282;2023-12-14T12:09:50;11.48;;;7.53;;
59972;SDS011;55298;-36.624;-64.282;2023-12-14T12:12:21;11.60;;;7.10;;
59972;SDS011;55298;-36.624;-64.282;2023-12-14T12:14:49;11.18;;;6.70;;
59972;SDS011;55298;-36.624;-64.282;2023-12-14T12:17:19;9.68;;;6.88;;
59972;SDS011;55298;-36.624;-64.282;2023-12-14T12:19:47;9.32;;;6.60;;
59972;SDS011;55298;-36.624;-64.282;2023-12-14T12:22:15;10.32;;;5.93;;
59972;SDS011;55298;-36.624;-64.282;2023-12-14T12:24:44;8.18;;;6.10;;
59972;SDS011;55298;-36.624;-64.282;2023-12-14T12:27:12;13.60;;;7.65;;
59972;SDS011;55298;-36.624;-64.282;2023-12-14T12:29:40;11.27;;;8.32;;
59972;SDS011;55298;-36.624;-64.282;2023-12-14T12:32:08;12.73;;;7.22;;
59972;SDS011;55298;-36.624;-64.282;2023-12-14T12:34:36;9.13;;;6.20;;
59972;SDS011;55298;-36.624;-64.282;2023-12-14T12:37:15;7.85;;;5.75;;
59972;SDS011;55298;-36.624;-64.282;2023-12-14T12:42:16;7.15;;;4.57;;
59972;SDS011;55298;-36.624;-64.282;2023-12-14T12:44:43;9.02;;;4.97;;
59972;SDS011;55298;-36.624;-64.282;2023-12-14T12:47:17;6.38;;;4.60;;
59972;SDS011;55298;-36.624;-64.282;2023-12-14T12:49:45;8.27;;;4.68;;
59972;SDS011;55298;-36.624;-64.282;2023-12-14T12:52:14;8.57;;;5.07;;
59972;SDS011;55298;-36.624;-64.282;2023-12-14T12:54:42;8.57;;;4.80;;
59972;SDS011;55298;-36.624;-64.282;2023-12-14T12:57:10;6.90;;;4.22;;
59972;SDS011;55298;-36.624;-64.282;2023-12-14T12:59:39;6.65;;;4.60;;
59972;SDS011;55298;-36.624;-64.282;2023-12-14T13:02:08;7.63;;;4.38;;
59972;SDS011;55298;-36.624;-64.282;2023-12-14T13:04:37;8.43;;;4.60;;
59972;SDS011;55298;-36.624;-64.282;2023-12-14T13:07:05;6.13;;;4.13;;
59972;SDS011;55298;-36.624;-64.282;2023-12-14T13:09:33;7.38;;;3.92;;
59972;SDS011;55298;-36.624;-64.282;2023-12-14T13:12:04;7.18;;;4.25;;
59972;SDS011;55298;-36.624;-64.282;2023-12-14T13:14:35;7.00;;;4.32;;
59972;SDS011;55298;-36.624;-64.282;2023-12-14T13:17:03;7.68;;;3.63;;
59972;SDS011;55298;-36.624;-64.282;2023-12-14T13:19:34;7.30;;;3.42;;
59972;SDS011;55298;-36.624;-64.282;2023-12-14T13:22:02;8.63;;;3.45;;
59972;SDS011;55298;-36.624;-64.282;2023-12-14T13:24:33;4.97;;;3.30;;
59972;SDS011;55298;-36.624;-64.282;2023-12-14T13:27:04;7.93;;;3.40;;
59972;SDS011;55298;-36.624;-64.282;2023-12-14T13:29:32;4.80;;;3.30;;
59972;SDS011;55298;-36.624;-64.282;2023-12-14T13:32:02;8.07;;;3.50;;
59972;SDS011;55298;-36.624;-64.282;2023-12-14T13:34:31;6.50;;;3.10;;
59972;SDS011;55298;-36.624;-64.282;2023-12-14T13:36:59;7.30;;;3.03;;
59972;SDS011;55298;-36.624;-64.282;2023-12-14T13:39:29;4.13;;;2.95;;
59972;SDS011;55298;-36.624;-64.282;2023-12-14T13:42:01;10.32;;;8.05;;
59972;SDS011;55298;-36.624;-64.282;2023-12-14T13:44:29;5.03;;;2.67;;
59972;SDS011;55298;-36.624;-64.282;2023-12-14T13:46:57;7.78;;;2.53;;
59972;SDS011;55298;-36.624;-64.282;2023-12-14T13:49:28;9.43;;;3.00;;
59972;SDS011;55298;-36.624;-64.282;2023-12-14T13:51:56;7.05;;;2.67;;
59972;SDS011;55298;-36.624;-64.282;2023-12-14T13:54:24;9.07;;;2.60;;
59972;SDS011;55298;-36.624;-64.282;2023-12-14T13:56:52;8.25;;;3.45;;
59972;SDS011;55298;-36.624;-64.282;2023-12-14T13:59:20;8.90;;;2.30;;
59972;SDS011;55298;-36.624;-64.282;2023-12-14T14:01:48;8.98;;;2.85;;
59972;SDS011;55298;-36.624;-64.282;2023-12-14T14:04:17;8.45;;;2.70;;
59972;SDS011;55298;-36.624;-64.282;2023-12-14T14:06:45;14.38;;;3.05;;
59972;SDS011;55298;-36.624;-64.282;2023-12-14T14:09:13;14.98;;;3.20;;
59972;SDS011;55298;-36.624;-64.282;2023-12-14T14:11:42;7.68;;;3.00;;
59972;SDS011;55298;-36.624;-64.282;2023-12-14T14:14:14;17.10;;;3.30;;
59972;SDS011;55298;-36.624;-64.282;2023-12-14T14:16:42;18.55;;;3.80;;
59972;SDS011;55298;-36.624;-64.282;2023-12-14T14:19:10;10.02;;;3.13;;
59972;SDS011;55298;-36.624;-64.282;2023-12-14T14:21:38;12.13;;;3.53;;
59972;SDS011;55298;-36.624;-64.282;2023-12-14T14:24:06;15.88;;;3.10;;